METAR Data
IDs: Format: Raw Decoded Include TAF

Data at: 1324 UTC 20 Oct 2021

METAR for:KAUS (Austin/Bergstrom Int, TX, US)
Text:KAUS 201253Z 00000KT 10SM OVC035 18/18 A3008 RMK AO2 SLP178 T01830183
Temperature: 18.3°C ( 65°F)
Dewpoint: 18.3°C ( 65°F) [RH = 100%]
Pressure (altimeter):30.08 inches Hg (1018.7 mb) [Sea level pressure: 1017.8 mb]
Winds:calm
Visibility:10 or more sm (16+ km)
Ceiling:3500 feet AGL
Clouds: overcast cloud deck at 3500 feet AGL